Time;durP1;ratioP1;P1;durP2;ratioP2;P2;SDS_P1;SDS_P2;PMS_P1;PMS_P2;Temp;Humidity;BMP_temperature;BMP_pressure;BME280_temperature;BME280_humidity;BME280_pressure;Samples;Min_cycle;Max_cycle;Signal;HPM_P1;HPM_P2
2023/04/12 00:00:34;;;;;;;8.13;2.60;;;;;;;8.11;52.29;96187.94;5017701;23;20046;-80
2023/04/12 00:03:06;;;;;;;3.45;2.33;;;;;;;8.12;52.67;96188.72;4994054;28;20058;-79
2023/04/12 00:05:35;;;;;;;4.82;2.20;;;;;;;8.16;52.47;96180.41;4994863;28;20093;-80
2023/04/12 00:08:03;;;;;;;8.65;2.30;;;;;;;8.21;52.48;96177.28;4994957;28;20100;-80
2023/04/12 00:10:31;;;;;;;5.65;1.75;;;;;;;8.27;52.40;96178.38;5009230;28;20054;-80
2023/04/12 00:12:59;;;;;;;6.75;2.40;;;;;;;8.32;52.26;96176.03;5008956;28;20114;-80
2023/04/12 00:15:27;;;;;;;7.13;2.08;;;;;;;8.33;52.06;96170.66;4996776;28;20054;-80
2023/04/12 00:17:56;;;;;;;3.63;1.83;;;;;;;8.35;51.90;96165.28;4994475;28;20050;-79
2023/04/12 00:20:26;;;;;;;3.20;1.70;;;;;;;8.40;51.79;96162.97;4994010;28;20058;-79
2023/04/12 00:22:56;;;;;;;3.38;1.70;;;;;;;8.45;51.67;96160.66;4993832;28;20113;-80
2023/04/12 00:25:25;;;;;;;6.45;1.75;;;;;;;8.51;51.72;96153.94;4993466;28;20051;-79
2023/04/12 00:27:53;;;;;;;4.78;1.80;;;;;;;8.49;51.29;96161.91;4993758;28;20049;-80
2023/04/12 00:30:22;;;;;;;3.97;1.95;;;;;;;8.44;51.67;96154.66;4993304;28;20085;-79
2023/04/12 00:32:50;;;;;;;6.80;2.00;;;;;;;8.43;51.55;96147.03;4993639;28;20061;-79
2023/04/12 00:35:19;;;;;;;3.50;2.05;;;;;;;8.38;51.67;96142.34;4993511;28;20058;-80
2023/04/12 00:37:48;;;;;;;6.35;1.70;;;;;;;8.36;51.89;96138.31;4993492;28;20462;-80
2023/04/12 00:40:17;;;;;;;6.30;2.17;;;;;;;8.37;51.59;96142.50;4993794;28;20104;-79
2023/04/12 00:42:45;;;;;;;5.45;2.25;;;;;;;8.35;51.93;96134.91;4993602;28;20068;-80
2023/04/12 00:45:14;;;;;;;5.93;2.05;;;;;;;8.34;52.18;96130.69;4993454;28;20062;-79
2023/04/12 00:47:42;;;;;;;4.50;2.35;;;;;;;8.34;52.23;96127.28;4993667;28;20049;-79
2023/04/12 00:50:12;;;;;;;5.05;1.90;;;;;;;8.34;52.26;96137.69;4993213;28;20137;-79
2023/04/12 00:52:40;;;;;;;2.75;1.90;;;;;;;8.30;52.77;96131.22;4993419;28;20058;-79
2023/04/12 00:55:10;;;;;;;6.43;3.15;;;;;;;8.24;53.02;96125.78;4993680;28;20078;-79
2023/04/12 00:57:40;;;;;;;5.65;2.42;;;;;;;8.19;53.32;96120.28;4993570;28;20105;-79
2023/04/12 01:00:12;;;;;;;5.18;2.08;;;;;;;8.21;53.38;96120.91;4993834;28;20457;-80
2023/04/12 01:02:45;;;;;;;3.85;2.00;;;;;;;8.29;53.70;96132.19;4993297;28;20062;-80
2023/04/12 01:05:21;;;;;;;3.22;1.30;;;;;;;8.35;54.30;96129.72;4993216;28;20545;-80
2023/04/12 01:07:55;;;;;;;3.28;1.95;;;;;;;8.48;54.65;96123.09;4993575;28;20141;-80
2023/04/12 01:10:33;;;;;;;3.38;1.45;;;;;;;8.57;55.22;96128.03;4993649;28;20141;-79
2023/04/12 01:13:14;;;;;;;3.47;1.70;;;;;;;8.65;55.84;96122.72;4993487;28;20104;-80
2023/04/12 01:15:51;;;;;;;3.28;2.13;;;;;;;8.73;55.74;96128.81;4993419;28;20137;-79
2023/04/12 01:18:23;;;;;;;2.58;1.30;;;;;;;8.80;56.20;96127.09;4993821;28;20050;-80
2023/04/12 01:20:56;;;;;;;2.20;1.33;;;;;;;8.83;56.34;96121.53;4994503;28;20053;-79
2023/04/12 01:23:42;;;;;;;5.32;2.00;;;;;;;8.87;57.14;96120.97;4998155;28;20052;-81
2023/04/12 01:26:24;;;;;;;3.88;1.42;;;;;;;8.92;57.12;96117.84;5015392;28;20061;-81
2023/04/12 01:28:55;;;;;;;3.38;1.48;;;;;;;8.96;57.02;96115.69;5015433;28;20038;-81
2023/04/12 01:31:24;;;;;;;5.75;1.70;;;;;;;8.96;57.34;96113.88;5014323;28;20129;-81
2023/04/12 01:33:54;;;;;;;4.72;1.73;;;;;;;8.99;57.85;96115.31;5014358;28;20057;-80
2023/04/12 01:36:26;;;;;;;4.15;1.52;;;;;;;9.01;57.72;96108.16;5013728;28;20361;-80
2023/04/12 01:38:54;;;;;;;5.53;1.60;;;;;;;9.03;58.04;96108.75;5010712;28;20061;-80
2023/04/12 01:41:22;;;;;;;5.53;1.77;;;;;;;9.08;57.79;96099.41;4994939;28;20046;-80
2023/04/12 01:43:50;;;;;;;4.75;1.60;;;;;;;9.11;57.98;96097.44;4997853;28;20054;-80
2023/04/12 01:46:23;;;;;;;4.35;1.60;;;;;;;9.12;58.44;96094.66;4997089;28;20085;-79
2023/04/12 01:48:53;;;;;;;2.15;1.10;;;;;;;9.14;58.23;96097.88;4996706;28;20077;-80
2023/04/12 01:51:34;;;;;;;4.18;1.40;;;;;;;9.14;59.31;96091.84;4996443;28;20418;-81
2023/04/12 01:54:10;;;;;;;3.95;1.70;;;;;;;9.12;58.95;96097.25;4996352;28;20094;-79
2023/04/12 01:56:41;;;;;;;4.32;1.60;;;;;;;9.10;59.30;96086.22;4996462;28;20081;-79
2023/04/12 01:59:10;;;;;;;6.10;1.77;;;;;;;9.11;59.02;96087.03;4996278;28;20062;-80
2023/04/12 02:01:40;;;;;;;4.80;1.90;;;;;;;9.13;59.37;96077.25;4995854;28;20137;-79
2023/04/12 02:04:09;;;;;;;6.07;2.10;;;;;;;9.13;59.58;96069.44;4996078;28;20117;-79
2023/04/12 02:06:38;;;;;;;6.45;2.22;;;;;;;9.08;59.92;96072.59;4995627;28;20101;-79
2023/04/12 02:09:06;;;;;;;5.57;2.30;;;;;;;9.01;60.23;96071.72;4995939;28;20050;-80
2023/04/12 02:11:34;;;;;;;3.33;1.75;;;;;;;8.97;60.44;96060.88;4996021;28;20046;-79
2023/04/12 02:14:02;;;;;;;3.72;1.80;;;;;;;8.98;60.56;96059.88;4995762;28;20058;-78
2023/04/12 02:16:31;;;;;;;5.82;1.75;;;;;;;9.02;60.54;96062.91;4995990;28;20496;-80
2023/04/12 02:19:00;;;;;;;5.13;2.70;;;;;;;8.99;61.06;96064.09;4995878;28;20084;-79
2023/04/12 02:21:28;;;;;;;6.85;2.95;;;;;;;8.98;60.85;96057.28;4995724;28;20544;-79
2023/04/12 02:23:57;;;;;;;6.03;1.92;;;;;;;8.95;61.17;96055.03;4995601;28;20521;-79
2023/04/12 02:26:26;;;;;;;12.32;3.60;;;;;;;8.93;61.60;96056.22;4995398;28;20042;-79
2023/04/12 02:28:54;;;;;;;4.53;2.80;;;;;;;8.93;61.46;96041.41;4995432;28;20145;-80
2023/04/12 02:31:23;;;;;;;6.00;2.40;;;;;;;8.96;61.71;96033.22;4995674;28;20050;-80
2023/04/12 02:33:51;;;;;;;5.93;2.67;;;;;;;8.93;61.85;96033.63;4995637;28;20128;-80
2023/04/12 02:36:20;;;;;;;5.13;2.33;;;;;;;8.86;62.53;96027.56;4995230;28;20100;-79
2023/04/12 02:38:49;;;;;;;6.18;2.83;;;;;;;8.77;62.67;96021.66;4995391;28;20046;-80
2023/04/12 02:41:18;;;;;;;7.53;2.45;;;;;;;8.68;63.33;96019.34;4995471;28;20054;-79
2023/04/12 02:43:46;;;;;;;8.95;2.67;;;;;;;8.60;63.75;96012.47;4995680;28;20133;-80
2023/04/12 02:46:16;;;;;;;4.85;2.10;;;;;;;8.55;63.91;96010.44;4995500;28;20141;-79
2023/04/12 02:48:45;;;;;;;4.40;2.03;;;;;;;8.52;64.51;96000.38;4995499;28;20058;-79
2023/04/12 02:51:13;;;;;;;4.47;2.22;;;;;;;8.49;64.71;96005.97;4995199;28;20050;-80
2023/04/12 02:53:43;;;;;;;5.25;3.08;;;;;;;8.47;65.51;96010.53;4994793;28;20062;-79
2023/04/12 02:56:12;;;;;;;7.72;3.53;;;;;;;8.44;65.41;95992.72;4995615;28;20058;-80
2023/04/12 02:58:40;;;;;;;8.13;3.40;;;;;;;8.46;65.49;96003.69;4995094;28;20054;-79
2023/04/12 03:01:11;;;;;;;5.38;2.80;;;;;;;8.51;65.18;95993.59;4995055;28;20050;-79
2023/04/12 03:03:39;;;;;;;6.05;2.80;;;;;;;8.56;65.33;95991.22;4994941;28;20530;-80
2023/04/12 03:06:08;;;;;;;12.65;4.07;;;;;;;8.61;65.41;95993.28;4995735;28;20100;-79
2023/04/12 03:08:36;;;;;;;8.40;4.13;;;;;;;8.62;65.52;95985.31;4995712;28;20046;-80
2023/04/12 03:11:06;;;;;;;9.13;4.53;;;;;;;8.60;65.95;95982.06;4995371;28;20053;-79
2023/04/12 03:13:34;;;;;;;9.43;4.55;;;;;;;8.58;65.77;95978.84;4994875;28;20054;-80
2023/04/12 03:16:22;;;;;;;7.60;3.85;;;;;;;8.54;66.89;95977.59;4995058;28;20057;-79
2023/04/12 03:18:51;;;;;;;9.52;4.35;;;;;;;8.45;66.19;95968.31;4995306;28;20054;-81
2023/04/12 03:21:19;;;;;;;8.48;3.95;;;;;;;8.39;67.00;95964.63;5006671;28;20399;-81
2023/04/12 03:23:47;;;;;;;13.05;5.45;;;;;;;8.36;66.97;95962.41;5008814;28;20058;-81
2023/04/12 03:26:19;;;;;;;11.73;5.28;;;;;;;8.28;67.48;95948.72;4999148;28;20050;-80
2023/04/12 03:28:48;;;;;;;6.57;3.70;;;;;;;8.22;67.60;95950.22;4994939;28;20421;-79
2023/04/12 03:31:20;;;;;;;6.63;3.80;;;;;;;8.18;67.38;95957.59;4994578;28;20088;-80
2023/04/12 03:33:48;;;;;;;6.57;3.28;;;;;;;8.12;68.22;95945.34;4994976;28;20165;-79
2023/04/12 03:36:17;;;;;;;10.60;4.45;;;;;;;8.06;68.17;95943.47;4994620;28;20046;-80
2023/04/12 03:38:45;;;;;;;10.82;4.38;;;;;;;8.02;68.52;95934.41;4994600;28;20141;-78
2023/04/12 03:41:14;;;;;;;8.45;3.45;;;;;;;7.97;68.65;95939.38;4994129;28;20058;-80
2023/04/12 03:43:43;;;;;;;6.82;3.08;;;;;;;7.93;69.20;95925.13;4994223;28;20442;-79
2023/04/12 03:46:14;;;;;;;6.40;3.30;;;;;;;7.88;69.33;95920.47;4994328;28;20137;-79
2023/04/12 03:48:42;;;;;;;5.18;3.35;;;;;;;7.84;69.36;95917.44;4994503;28;20053;-80
2023/04/12 03:51:11;;;;;;;6.32;3.13;;;;;;;7.82;69.59;95921.19;4994285;28;20046;-79
2023/04/12 03:53:39;;;;;;;6.28;2.95;;;;;;;7.80;69.66;95913.56;4994193;28;20059;-80
2023/04/12 03:56:08;;;;;;;7.43;3.40;;;;;;;7.80;70.04;95915.38;4993956;28;20521;-79
2023/04/12 03:58:36;;;;;;;5.63;3.25;;;;;;;7.80;69.74;95905.78;4994499;28;20073;-79
2023/04/12 04:01:08;;;;;;;6.25;3.17;;;;;;;7.80;70.37;95903.19;4994073;28;20434;-79
2023/04/12 04:03:36;;;;;;;6.03;2.97;;;;;;;7.82;70.06;95890.03;4993588;28;20137;-79
2023/04/12 04:06:05;;;;;;;5.35;2.08;;;;;;;7.84;70.23;95886.28;4994068;28;20166;-79
2023/04/12 04:08:33;;;;;;;6.03;2.58;;;;;;;7.85;70.29;95881.91;4994063;28;20050;-80
2023/04/12 04:11:01;;;;;;;4.00;2.60;;;;;;;7.83;70.47;95871.69;4993764;28;20054;-80
2023/04/12 04:13:29;;;;;;;5.13;2.38;;;;;;;7.87;70.39;95871.31;4994086;28;20050;-80
2023/04/12 04:16:00;;;;;;;5.13;3.15;;;;;;;7.90;71.17;95863.19;4993591;28;20046;-81
2023/04/12 04:18:29;;;;;;;5.93;3.13;;;;;;;7.97;71.08;95861.44;4993910;28;20058;-80
2023/04/12 04:20:58;;;;;;;5.40;2.88;;;;;;;8.04;70.47;95860.53;4993783;28;20054;-79
2023/04/12 04:23:27;;;;;;;7.70;3.78;;;;;;;8.05;70.22;95856.16;4993437;28;20569;-79
2023/04/12 04:25:57;;;;;;;6.25;3.22;;;;;;;8.02;70.65;95852.13;4976401;28;20042;-81
2023/04/12 04:28:26;;;;;;;4.57;3.00;;;;;;;8.04;70.68;95844.13;4993861;28;20054;-80
2023/04/12 04:30:55;;;;;;;4.28;3.42;;;;;;;8.09;71.08;95846.19;4993403;28;20136;-79
2023/04/12 04:33:23;;;;;;;6.90;3.17;;;;;;;8.18;71.31;95848.50;4993504;28;20145;-79
2023/04/12 04:35:56;;;;;;;5.00;2.72;;;;;;;8.29;70.76;95851.56;4993670;28;20506;-79
2023/04/12 04:38:25;;;;;;;;;;;;;;;8.36;70.67;95855.06;4994280;28;20054;-79
2023/04/12 04:40:54;;;;;;;4.32;3.75;;;;;;;8.39;69.76;95854.66;4993517;28;19980;-80
2023/04/12 04:43:22;;;;;;;4.18;3.72;;;;;;;8.37;69.88;95854.03;4993450;28;20069;-79
2023/04/12 04:45:53;;;;;;;5.40;4.13;;;;;;;8.32;70.55;95848.63;4993391;28;20112;-80
2023/04/12 04:48:21;;;;;;;4.43;3.95;;;;;;;8.29;70.42;95855.00;4993795;28;20054;-80
2023/04/12 04:50:51;;;;;;;5.63;4.15;;;;;;;8.29;70.89;95839.41;4993372;28;20498;-79
2023/04/12 04:53:31;;;;;;;4.97;4.18;;;;;;;8.33;71.65;95842.41;4993735;28;20526;-80
2023/04/12 04:56:00;;;;;;;4.10;3.70;;;;;;;8.30;70.59;95840.19;4993923;28;20136;-79
2023/04/12 04:58:29;;;;;;;6.25;4.72;;;;;;;8.30;70.88;95837.59;4993595;28;20124;-79
2023/04/12 05:00:58;;;;;;;4.40;3.72;;;;;;;8.23;71.33;95840.94;4993869;28;20470;-79
2023/04/12 05:03:27;;;;;;;5.22;3.78;;;;;;;8.19;71.66;95836.28;4993329;28;20053;-79
2023/04/12 05:05:58;;;;;;;6.78;5.43;;;;;;;8.15;71.47;95832.47;4993391;28;20078;-79
2023/04/12 05:08:28;;;;;;;5.55;4.20;;;;;;;8.14;72.20;95826.47;4993492;28;20046;-80
2023/04/12 05:10:57;;;;;;;4.43;3.78;;;;;;;8.12;71.93;95831.03;4993222;28;20090;-79
2023/04/12 05:13:26;;;;;;;5.28;3.05;;;;;;;8.15;72.37;95822.06;4993193;28;20046;-80
2023/04/12 05:15:54;;;;;;;3.72;3.42;;;;;;;8.20;72.10;95819.75;4994890;28;20145;-79
2023/04/12 05:18:22;;;;;;;3.72;3.42;;;;;;;8.21;71.67;95818.72;4997250;28;20153;-80
2023/04/12 05:20:50;;;;;;;3.55;3.25;;;;;;;8.23;71.90;95814.94;4997533;28;20141;-79
2023/04/12 05:23:18;;;;;;;3.60;2.80;;;;;;;8.28;71.61;95821.38;4997185;28;20074;-79
2023/04/12 05:25:48;;;;;;;3.72;2.95;;;;;;;8.25;71.69;95817.38;4997147;28;20096;-79
2023/04/12 05:28:17;;;;;;;4.95;3.97;;;;;;;8.16;71.84;95813.31;4996714;28;20046;-79
2023/04/12 05:30:45;;;;;;;3.70;3.40;;;;;;;8.09;72.08;95807.22;4996901;28;20054;-80
2023/04/12 05:33:14;;;;;;;3.70;3.25;;;;;;;8.09;72.44;95808.03;4996901;28;20058;-79
2023/04/12 05:35:42;;;;;;;3.45;2.60;;;;;;;8.13;72.78;95806.66;4996992;28;20049;-79
2023/04/12 05:38:11;;;;;;;3.28;2.97;;;;;;;8.20;72.61;95810.13;4996711;28;20050;-79
2023/04/12 05:40:40;;;;;;;3.35;3.05;;;;;;;8.30;72.35;95803.81;4996767;28;20104;-79
2023/04/12 05:43:11;;;;;;;3.83;3.42;;;;;;;8.38;72.17;95808.91;4996769;28;20046;-80
2023/04/12 05:45:40;;;;;;;3.25;2.95;;;;;;;8.41;71.99;95803.34;4996503;28;20468;-80
2023/04/12 05:48:09;;;;;;;2.75;2.50;;;;;;;8.44;71.86;95801.19;4996341;28;20046;-80
2023/04/12 05:50:37;;;;;;;3.30;3.00;;;;;;;8.47;71.70;95802.59;4996320;28;20053;-80
2023/04/12 05:53:06;;;;;;;3.53;3.22;;;;;;;8.48;71.76;95801.59;4996441;28;20061;-79
2023/04/12 05:55:34;;;;;;;3.67;2.97;;;;;;;8.49;71.41;95800.63;4996585;28;20139;-79
2023/04/12 05:58:05;;;;;;;9.15;3.80;;;;;;;8.50;71.76;95804.00;4996377;28;20083;-80
2023/04/12 07:28:25;;;;;;;3.17;2.22;;;;;;;8.59;73.04;95650.34;6047068;23;20162;-81
2023/04/12 08:46:57;;;;;;;1.95;1.70;;;;;;;8.86;75.12;95517.81;5949583;23;21195;-82
2023/04/12 09:01:21;;;;;;;1.17;1.00;;;;;;;9.26;73.44;95515.25;4925229;23;20210;-78
2023/04/12 09:03:50;;;;;;;0.80;0.80;;;;;;;9.30;73.85;95513.84;4957293;29;20602;-79
2023/04/12 09:06:18;;;;;;;1.08;1.00;;;;;;;9.37;74.28;95514.66;4958051;29;20426;-78
2023/04/12 09:08:53;;;;;;;1.30;1.15;;;;;;;9.39;74.96;95497.03;4958048;29;20134;-78
2023/04/12 09:11:23;;;;;;;3.47;1.15;;;;;;;9.40;74.07;95488.22;4958420;29;20051;-79
2023/04/12 09:13:51;;;;;;;3.80;1.70;;;;;;;9.41;74.49;95496.84;4957452;28;20063;-78
2023/04/12 09:16:33;;;;;;;2.67;2.08;;;;;;;9.44;74.84;95499.81;4957868;28;20532;-79
2023/04/12 09:19:02;;;;;;;2.20;1.25;;;;;;;9.45;74.65;95493.63;4958105;29;20463;-79
2023/04/12 09:21:31;;;;;;;3.22;1.27;;;;;;;9.48;74.69;95495.81;4957543;29;20464;-78
2023/04/12 09:24:05;;;;;;;4.25;1.90;;;;;;;9.48;75.17;95480.19;4957402;29;20051;-79
2023/04/12 09:26:32;;;;;;;2.50;1.70;;;;;;;9.50;74.97;95490.41;4957967;29;20109;-79
2023/04/12 09:29:00;;;;;;;2.25;1.85;;;;;;;9.51;74.48;95488.59;4957535;29;20507;-79
2023/04/12 09:31:27;;;;;;;1.50;1.40;;;;;;;9.55;74.82;95500.22;4957678;29;20058;-78
2023/04/12 09:34:08;;;;;;;3.35;1.55;;;;;;;9.60;75.88;95488.22;4957507;29;20050;-79
2023/04/12 09:36:39;;;;;;;2.83;2.28;;;;;;;9.68;75.57;95484.56;4957459;29;20051;-79
2023/04/12 09:39:07;;;;;;;2.53;2.03;;;;;;;9.72;75.44;95470.16;4957765;29;20047;-79
2023/04/12 09:41:35;;;;;;;2.00;1.80;;;;;;;9.75;75.34;95477.56;4957903;29;20055;-79
2023/04/12 09:44:03;;;;;;;2.38;1.88;;;;;;;9.77;75.09;95477.34;4971737;28;20055;-78
2023/04/12 09:46:31;;;;;;;2.40;2.20;;;;;;;9.79;75.29;95475.34;4971754;28;20051;-78
2023/04/12 09:48:59;;;;;;;3.20;2.67;;;;;;;9.77;75.17;95464.31;4959141;29;20052;-79
2023/04/12 09:51:30;;;;;;;6.03;2.33;;;;;;;9.77;75.07;95457.31;4957819;29;20051;-79
2023/04/12 09:53:59;;;;;;;2.10;1.90;;;;;;;9.72;75.01;95470.16;4957978;28;20051;-79
2023/04/12 09:56:30;;;;;;;2.97;2.50;;;;;;;9.72;75.36;95475.34;4957802;29;20049;-79
2023/04/12 09:59:02;;;;;;;2.55;1.83;;;;;;;9.74;75.44;95470.75;4957027;29;20500;-79
2023/04/12 10:01:33;;;;;;;1.85;1.50;;;;;;;9.77;75.09;95467.72;4956525;28;20602;-79
2023/04/12 10:04:02;;;;;;;4.47;2.22;;;;;;;9.77;75.21;95462.53;4956430;29;20047;-79
2023/04/12 10:06:32;;;;;;;2.42;2.22;;;;;;;9.75;75.28;95448.09;4956976;29;20063;-78
2023/04/12 10:09:03;;;;;;;4.00;3.03;;;;;;;9.70;75.77;95454.72;4956936;29;20094;-79
2023/04/12 10:11:32;;;;;;;2.55;1.98;;;;;;;9.72;75.91;95445.91;4957055;29;20435;-78
2023/04/12 10:14:02;;;;;;;2.08;1.88;;;;;;;9.73;75.93;95455.31;4957489;29;20051;-78
2023/04/12 10:16:30;;;;;;;2.45;2.00;;;;;;;9.83;75.60;95448.69;4956755;29;20085;-79
2023/04/12 10:19:02;;;;;;;5.07;2.30;;;;;;;9.93;75.75;95443.06;4956691;29;20094;-78
2023/04/12 10:21:31;;;;;;;3.05;2.70;;;;;;;9.98;75.47;95442.44;4956656;29;20063;-79
2023/04/12 10:23:59;;;;;;;4.25;2.97;;;;;;;10.04;75.84;95439.81;4956548;29;20134;-78
2023/04/12 10:26:27;;;;;;;4.65;2.70;;;;;;;10.15;75.82;95440.97;4956568;29;20051;-79
2023/04/12 10:29:22;;;;;;;3.10;2.42;;;;;;;10.21;76.26;95444.53;4956452;28;20047;-79
2023/04/12 10:31:49;;;;;;;4.55;3.35;;;;;;;10.26;75.49;95431.69;4956324;29;20051;-78
2023/04/12 10:34:17;;;;;;;3.22;2.95;;;;;;;10.30;75.50;95430.31;4956393;29;20051;-79
2023/04/12 10:36:54;;;;;;;2.70;2.50;;;;;;;10.31;75.78;95437.09;4956547;29;20113;-78
2023/04/12 10:39:39;;;;;;;3.50;2.47;;;;;;;10.32;75.60;95438.72;4956760;29;20055;-79
2023/04/12 10:42:17;;;;;;;3.05;2.53;;;;;;;10.38;75.36;95439.69;4955830;29;20500;-79
2023/04/12 10:44:45;;;;;;;3.90;3.22;;;;;;;10.45;74.64;95437.81;4956138;29;20055;-79
2023/04/12 10:47:13;;;;;;;7.13;3.55;;;;;;;10.49;75.14;95425.97;4956008;29;20084;-78
2023/04/12 10:49:40;;;;;;;3.97;3.58;;;;;;;10.53;74.92;95424.56;4955966;29;20106;-78
2023/04/12 10:52:16;;;;;;;4.55;3.47;;;;;;;10.58;75.43;95419.50;4955922;29;20051;-78
2023/04/12 10:54:44;;;;;;;4.60;3.85;;;;;;;10.64;74.90;95416.03;4955826;29;20051;-79
2023/04/12 10:57:40;;;;;;;5.50;3.30;;;;;;;10.74;75.77;95418.22;4955979;29;20051;-78
2023/04/12 11:00:09;;;;;;;4.15;3.35;;;;;;;10.77;74.72;95420.38;4956022;29;20054;-78
2023/04/12 11:03:06;;;;;;;4.93;3.20;;;;;;;10.83;75.79;95431.78;4955505;29;20210;-79
2023/04/12 11:05:59;;;;;;;4.13;3.70;;;;;;;10.91;75.31;95415.84;4956115;29;20145;-78
2023/04/12 11:08:41;;;;;;;4.07;3.47;;;;;;;10.95;75.42;95411.03;4956019;29;20090;-79
2023/04/12 11:11:19;;;;;;;4.90;4.00;;;;;;;11.04;75.47;95421.00;4956046;29;20047;-79
2023/04/12 11:13:47;;;;;;;4.32;3.33;;;;;;;11.11;74.83;95410.50;4955556;28;20051;-79
2023/04/12 11:16:14;;;;;;;5.22;3.85;;;;;;;11.16;74.83;95412.47;4956050;29;20516;-79
2023/04/12 11:18:46;;;;;;;6.78;4.07;;;;;;;11.12;74.44;95410.25;4955746;29;20081;-79
2023/04/12 11:21:14;;;;;;;4.45;3.85;;;;;;;11.14;74.75;95410.84;4955544;29;20089;-78
2023/04/12 11:23:43;;;;;;;3.95;3.55;;;;;;;11.18;75.08;95394.78;4955241;29;20051;-78
2023/04/12 11:26:11;;;;;;;8.82;4.25;;;;;;;11.17;74.42;95403.59;4955545;29;20422;-79
2023/04/12 11:28:38;;;;;;;6.32;3.95;;;;;;;11.18;75.24;95394.78;4955481;29;20062;-79
2023/04/12 11:31:06;;;;;;;5.13;4.30;;;;;;;11.24;75.00;95379.06;4955216;29;20491;-79
2023/04/12 11:33:35;;;;;;;5.50;4.05;;;;;;;11.31;74.73;95376.38;4955402;28;20051;-78
2023/04/12 11:36:06;;;;;;;4.45;4.05;;;;;;;11.42;74.47;95380.09;4955465;29;20086;-79
2023/04/12 11:38:35;;;;;;;5.85;4.63;;;;;;;11.51;74.51;95382.19;4955566;29;20422;-78
2023/04/12 11:41:05;;;;;;;6.47;4.00;;;;;;;11.62;74.17;95380.66;4955275;29;20055;-79
2023/04/12 11:43:33;;;;;;;6.07;4.20;;;;;;;11.71;73.84;95373.34;4955131;29;20055;-78
2023/04/12 11:46:02;;;;;;;5.93;4.55;;;;;;;11.75;73.77;95362.22;4955327;29;20055;-78
2023/04/12 11:48:29;;;;;;;6.18;4.63;;;;;;;11.90;73.68;95354.03;4955188;29;20138;-79
2023/04/12 11:50:57;;;;;;;8.73;4.32;;;;;;;12.11;73.03;95346.72;4955255;29;20051;-78
2023/04/12 11:53:37;;;;;;;4.40;3.92;;;;;;;12.36;72.55;95339.53;4954870;29;20112;-78
2023/04/12 11:56:10;;;;;;;4.47;3.97;;;;;;;12.59;72.53;95332.75;4955230;29;20055;-79
2023/04/12 11:58:37;;;;;;;5.15;3.83;;;;;;;12.82;71.76;95325.97;4959438;29;20055;-79
2023/04/12 12:01:05;;;;;;;5.43;4.88;;;;;;;12.97;71.33;95331.56;4973517;29;20063;-79
2023/04/12 12:03:33;;;;;;;4.45;3.90;;;;;;;13.02;71.15;95344.75;4972603;29;20051;-79
2023/04/12 12:06:02;;;;;;;5.05;4.55;;;;;;;12.96;71.37;95332.56;4957823;29;20056;-79
2023/04/12 12:08:30;;;;;;;4.35;3.95;;;;;;;12.90;71.57;95333.47;4955024;29;20055;-79
2023/04/12 12:10:58;;;;;;;5.03;4.43;;;;;;;12.83;70.95;95332.78;4955956;29;20051;-79
2023/04/12 12:13:47;;;;;;;5.28;4.13;;;;;;;12.68;72.02;95331.44;4955675;29;20090;-79
2023/04/12 12:16:15;;;;;;;5.22;4.28;;;;;;;12.58;71.79;95318.09;4955993;28;20435;-79
2023/04/12 12:18:43;;;;;;;6.97;4.32;;;;;;;12.49;72.17;95322.88;4956507;28;20078;-78
2023/04/12 12:21:13;;;;;;;5.88;4.43;;;;;;;12.42;72.46;95332.63;4973157;29;20059;-79
2023/04/12 12:23:43;;;;;;;5.32;4.28;;;;;;;12.36;73.14;95329.09;4974070;29;20035;-80
2023/04/12 12:26:19;;;;;;;4.40;4.00;;;;;;;12.32;73.92;95317.47;4974116;28;20111;-79
2023/04/12 12:28:51;;;;;;;6.32;4.47;;;;;;;12.26;73.48;95317.56;4974205;29;20071;-79
2023/04/12 12:31:21;;;;;;;7.78;4.70;;;;;;;12.25;73.41;95316.00;4972969;29;20514;-79
2023/04/12 12:33:51;;;;;;;5.40;4.35;;;;;;;12.28;73.62;95311.09;4972587;29;20058;-79
2023/04/12 12:36:19;;;;;;;5.57;3.63;;;;;;;12.33;74.09;95313.84;4961669;29;20427;-79
2023/04/12 12:38:47;;;;;;;5.60;4.20;;;;;;;12.39;74.24;95316.59;4954626;29;20464;-79
2023/04/12 12:41:17;;;;;;;6.72;4.15;;;;;;;12.45;74.28;95311.25;4954783;29;20482;-79
2023/04/12 12:43:45;;;;;;;7.78;4.03;;;;;;;12.52;73.73;95306.72;4954323;29;20058;-79
2023/04/12 12:46:16;;;;;;;4.68;3.42;;;;;;;12.54;73.94;95309.91;4954314;28;20051;-79
2023/04/12 12:48:44;;;;;;;5.82;3.75;;;;;;;12.62;74.07;95302.75;4954271;29;20511;-79
2023/04/12 12:51:13;;;;;;;4.65;3.95;;;;;;;12.68;74.08;95309.69;4954250;29;20053;-79
2023/04/12 12:53:41;;;;;;;3.70;3.33;;;;;;;12.70;73.61;95312.88;4961171;29;20055;-79
2023/04/12 12:56:09;;;;;;;5.00;3.08;;;;;;;12.69;73.59;95296.38;4966993;29;20070;-79
2023/04/12 12:58:38;;;;;;;3.72;2.75;;;;;;;12.72;74.02;95295.91;4960743;29;20058;-80
2023/04/12 13:01:07;;;;;;;3.63;1.90;;;;;;;12.74;72.95;95293.88;4955112;29;20051;-79
2023/04/12 13:03:36;;;;;;;2.03;1.80;;;;;;;12.82;72.64;95305.84;4954266;28;20066;-79
2023/04/12 13:06:04;;;;;;;2.75;1.92;;;;;;;12.90;72.25;95291.59;4954492;29;20059;-79
2023/04/12 13:08:34;;;;;;;1.80;1.38;;;;;;;12.97;72.35;95297.53;4954182;29;20435;-79
2023/04/12 13:11:01;;;;;;;1.35;1.20;;;;;;;12.99;72.19;95287.63;4953636;29;20043;-79
2023/04/12 13:13:29;;;;;;;7.35;1.63;;;;;;;13.03;71.88;95287.97;4953915;29;20083;-78
2023/04/12 13:15:57;;;;;;;1.77;1.15;;;;;;;13.08;71.86;95278.41;4954176;29;20134;-79
2023/04/12 13:18:24;;;;;;;2.38;0.82;;;;;;;13.18;71.69;95272.56;4954097;29;20055;-79
2023/04/12 13:20:53;;;;;;;3.20;1.25;;;;;;;13.35;71.50;95267.44;4954151;29;20126;-79
2023/04/12 13:23:21;;;;;;;2.78;1.25;;;;;;;13.53;70.73;95256.78;4953788;29;20078;-78
2023/04/12 13:25:48;;;;;;;2.97;1.20;;;;;;;13.71;70.65;95255.03;4953963;29;20055;-79
2023/04/12 13:28:16;;;;;;;2.63;1.48;;;;;;;13.83;69.81;95260.25;4954413;29;20055;-79
2023/04/12 13:30:44;;;;;;;2.20;1.50;;;;;;;13.86;69.29;95257.94;4954466;29;20043;-79
2023/04/12 13:33:12;;;;;;;1.88;1.23;;;;;;;13.81;69.64;95252.59;4953775;29;20051;-79
2023/04/12 13:35:45;;;;;;;1.55;1.10;;;;;;;13.80;69.30;95248.41;4954059;29;20055;-79
2023/04/12 13:38:14;;;;;;;1.05;0.80;;;;;;;13.81;68.54;95250.78;4957193;28;20057;-79
2023/04/12 13:40:42;;;;;;;0.80;0.80;;;;;;;13.83;68.20;95240.06;4957706;29;20418;-79
2023/04/12 13:43:09;;;;;;;2.67;1.02;;;;;;;13.82;69.44;95241.09;4957237;29;20047;-79
2023/04/12 13:45:37;;;;;;;2.40;0.82;;;;;;;13.83;68.36;95237.44;4957620;29;20443;-79
2023/04/12 13:48:04;;;;;;;1.48;0.90;;;;;;;13.86;68.50;95230.94;4957588;28;20055;-80
2023/04/12 13:50:32;;;;;;;1.30;1.20;;;;;;;13.89;68.79;95233.09;4957121;29;20043;-79
2023/04/12 13:53:00;;;;;;;1.90;1.70;;;;;;;13.86;69.06;95226.47;4956842;29;20055;-79
2023/04/12 13:55:29;;;;;;;2.78;1.73;;;;;;;13.87;69.38;95232.53;4957410;29;20066;-79
2023/04/12 13:57:56;;;;;;;5.05;1.60;;;;;;;13.86;69.36;95236.97;4957456;29;20119;-76
2023/04/12 14:00:24;;;;;;;2.10;1.10;;;;;;;13.84;69.52;95225.13;4957426;29;20082;-78
2023/04/12 14:02:52;;;;;;;4.88;1.38;;;;;;;13.83;70.38;95226.16;4957876;29;20511;-80
2023/04/12 14:05:19;;;;;;;0.50;0.50;;;;;;;13.78;68.98;95224.25;4958310;29;20055;-79
2023/04/12 14:07:48;;;;;;;1.42;0.70;;;;;;;13.73;70.08;95229.38;4957625;29;20059;-79
2023/04/12 14:10:16;;;;;;;1.33;0.80;;;;;;;13.69;69.59;95220.44;4957481;29;20047;-79
2023/04/12 14:12:45;;;;;;;1.42;1.00;;;;;;;13.64;69.75;95220.31;4956770;29;20055;-78
2023/04/12 14:15:13;;;;;;;1.98;1.00;;;;;;;13.62;69.11;95225.00;4957164;29;20055;-79
2023/04/12 14:17:40;;;;;;;0.75;0.55;;;;;;;13.60;67.85;95217.38;4957007;29;20055;-79
2023/04/12 14:20:10;;;;;;;1.25;0.50;;;;;;;13.59;68.18;95216.56;4956731;29;20051;-79
2023/04/12 14:22:37;;;;;;;0.55;0.40;;;;;;;13.57;67.37;95213.38;4956525;29;20153;-78
2023/04/12 14:25:06;;;;;;;1.50;0.68;;;;;;;13.54;66.53;95208.63;4957179;29;20051;-79
2023/04/12 14:27:35;;;;;;;3.00;1.30;;;;;;;13.54;66.92;95213.88;4956754;29;20058;-79
2023/04/12 14:30:06;;;;;;;2.45;1.83;;;;;;;13.55;67.89;95215.44;4956562;29;20077;-79
2023/04/12 14:32:33;;;;;;;2.25;1.25;;;;;;;13.55;66.83;95212.81;4955930;28;20061;-79
2023/04/12 14:35:01;;;;;;;0.73;0.55;;;;;;;13.56;65.57;95206.56;4956431;29;20055;-79
2023/04/12 14:37:28;;;;;;;0.63;0.50;;;;;;;13.59;66.49;95206.09;4956362;29;20055;-79
2023/04/12 14:39:56;;;;;;;1.02;0.80;;;;;;;13.64;65.66;95199.34;4956292;28;20058;-79
2023/04/12 14:42:24;;;;;;;0.77;0.60;;;;;;;13.67;66.40;95191.03;4956169;29;20093;-78
2023/04/12 14:44:51;;;;;;;2.33;1.27;;;;;;;13.75;66.64;95193.25;4956274;29;20059;-79
2023/04/12 14:47:20;;;;;;;1.10;1.00;;;;;;;13.84;67.20;95196.28;4956283;29;20142;-79